AirNav   Air Wisconsin Airman Trainee
 
 310 users online  

17KY Lester Field Airport
Sacramento, Kentucky, USA

GOING TO SACRAMENTO?


FAA INFORMATION EFFECTIVE 28 MARCH 2019

Location

FAA Identifier: 17KY
Lat/Long: 37-23-38.1610N / 087-15-31.9900W
37-23.636017N / 087-15.533167W
37.3939336 / -87.2588861
(estimated)
Elevation: 440 ft. / 134 m (estimated)
Variation: 00W (1985)
From city: 1 mile S of SACRAMENTO, KY
Time zone: UTC -5 (UTC -6 during Standard Time)
Zip code: 42372

Airport Operations

Airport use: Private use. Permission required prior to landing
Activation date: 04/1976
Control tower: no
ARTCC: INDIANAPOLIS CENTER
FSS: LOUISVILLE FLIGHT SERVICE STATION
Attendance: UNATNDD
Wind indicator: yes
Segmented circle: no

Airport Communications

WX AWOS-3 at 2I0 (7 nm W): 126.475 (270-821-4554)
WX AWOS-3 at M21 (11 nm SE): 120.45 (270-338-7788)
WX AWOS-3PT at JQD (20 nm E): 132.1 (270-298-7936)

Nearby radio navigation aids

VOR radial/distance  VOR name  Freq  Var
CCT at fieldCENTRAL CITY VORTAC109.8001W
OWBr196/21.4OWENSBORO VOR/DME108.6004W
PXVr140/40.0POCKET CITY VORTAC113.3003E

Airport Services

Runway Information

Runway 17/35

Dimensions: 2000 x 75 ft. / 610 x 23 m
Surface: turf
RUNWAY 17  RUNWAY 35
Traffic pattern: leftleft
Obstructions: none80 ft. trees

Airport Ownership and Management from official FAA records

Ownership: Privately-owned
Owner: DONAKD KESTER
P.O. BOX 454
SACRAMENTO, KY 42372
Phone (270) 313-8830
Manager: DONALD LESTER
P.O. BOX 454
SACRAMENTO, KY 42372
Phone (270) 313-8830

Instrument Procedures

There are no published instrument procedures at 17KY.

Some nearby airports with instrument procedures:

2I0 - Madisonville Regional Airport (7 nm W)
M21 - Muhlenberg County Airport (11 nm SE)
KJQD - Ohio County Airport (20 nm E)
KOWB - Owensboro-Daviess County Regional Airport (21 nm N)
KEHR - Henderson City-County Airport (32 nm NW)
 
Loc | Ops | Rwys | IFR | FBO | Links
Com | Nav | Svcs | Stats | Notes
Area around 17KY (Lester Field Airport)
 
Road maps at: MapQuest Bing Google
 
Aerial photo
No photo
 
Sectional chart

 
Airport distance calculator
Flying to Lester Field Airport? Find the distance to fly.

From to 17KY

Sunrise and sunset
Times for 20-Apr-2019
 Local
(UTC-5)
 Zulu
(UTC)
Morning civil twilight05:4110:41
Sunrise06:0911:09
Sunset19:2700:27
Evening civil twilight19:5500:55

Current date and time
Zulu (UTC)  20-Apr-2019 09:10:27
Local (UTC-5)  20-Apr-2019 04:10:27
 
METAR
K2I0 
7nm W 
200855Z AUTO 33010KT 7SM -RA OVC008 07/06 A2963 RMK AO2 P0003 60019 T00670056
KM21 
11nm SE 
200855Z AUTO 33006G17KT 10SM RA SCT009 BKN014 OVC020 05/05 A2961 RMK AO2 T00530053
KOWB 
20nm N 
200856Z AUTO 34011G16KT 10SM -RA BKN009 BKN016 OVC021 06/05 A2961 RMK AO2 CIG 007V012 SLP041 P0005 60016 T00610050 51009
TAF
KOWB 
20nm N 
200520Z 2006/2106 34015G25KT 6SM SHRA BR OVC020 TEMPO 2006/2010 5SM SHRA OVC010 FM201500 33017G26KT P6SM OVC020 FM201800 34015G24KT P6SM BKN025 FM202100 33012G20KT P6SM SCT050 FM210000 33008KT P6SM SKC FM210300 VRB02KT P6SM SKC
NOTAMs
Click for the latest NOTAMs
NOTAMs are issued by the DoD/FAA and will open in a separate window not controlled by AirNav.

 

 
 

Would you like to see your business listed on this page?

 If your business provides an interesting product or service to pilots, flight crews, aircraft, or users of the Lester Field Airport, you should consider listing it here.  To start the listing process, click on the button below
 
Add a business
 

Other Pages about Lester Field Airport

Update a link
 
Copyright © AirNav, LLC. All rights reserved. Privacy Policy  Contact